sensor_id;sensor_type;location;lat;lon;timestamp;P1;durP1;ratioP1;P2;durP2;ratioP2
20857;SDS011;10589;53.636;10.012;2023-07-20T03:47:55;4.90;;;4.40;;
20857;SDS011;10589;53.636;10.012;2023-07-20T03:50:21;4.93;;;4.43;;
20857;SDS011;10589;53.636;10.012;2023-07-20T03:52:47;5.93;;;4.50;;
20857;SDS011;10589;53.636;10.012;2023-07-20T03:55:12;4.87;;;4.17;;
20857;SDS011;10589;53.636;10.012;2023-07-20T03:57:39;7.80;;;3.97;;
20857;SDS011;10589;53.636;10.012;2023-07-20T04:00:05;4.67;;;4.20;;
20857;SDS011;10589;53.636;10.012;2023-07-20T04:02:32;5.23;;;4.53;;
20857;SDS011;10589;53.636;10.012;2023-07-20T04:04:58;5.03;;;4.53;;
20857;SDS011;10589;53.636;10.012;2023-07-20T04:07:24;4.40;;;4.00;;
20857;SDS011;10589;53.636;10.012;2023-07-20T04:09:50;7.37;;;4.10;;
20857;SDS011;10589;53.636;10.012;2023-07-20T04:12:16;4.80;;;4.40;;
20857;SDS011;10589;53.636;10.012;2023-07-20T04:14:42;6.23;;;4.80;;
20857;SDS011;10589;53.636;10.012;2023-07-20T04:17:07;4.50;;;3.77;;
20857;SDS011;10589;53.636;10.012;2023-07-20T04:19:33;4.03;;;3.63;;
20857;SDS011;10589;53.636;10.012;2023-07-20T04:21:58;5.17;;;3.80;;
20857;SDS011;10589;53.636;10.012;2023-07-20T04:24:24;3.50;;;3.20;;
20857;SDS011;10589;53.636;10.012;2023-07-20T04:26:50;5.27;;;4.37;;
20857;SDS011;10589;53.636;10.012;2023-07-20T04:29:15;6.27;;;4.50;;
20857;SDS011;10589;53.636;10.012;2023-07-20T04:31:41;5.33;;;4.70;;
20857;SDS011;10589;53.636;10.012;2023-07-20T04:34:06;5.60;;;4.27;;
20857;SDS011;10589;53.636;10.012;2023-07-20T04:36:32;5.47;;;4.63;;
20857;SDS011;10589;53.636;10.012;2023-07-20T04:38:57;6.57;;;4.70;;
20857;SDS011;10589;53.636;10.012;2023-07-20T04:41:23;4.47;;;4.00;;
20857;SDS011;10589;53.636;10.012;2023-07-20T04:43:51;4.23;;;3.83;;
20857;SDS011;10589;53.636;10.012;2023-07-20T04:46:16;6.40;;;4.47;;
20857;SDS011;10589;53.636;10.012;2023-07-20T04:48:43;4.83;;;3.70;;
20857;SDS011;10589;53.636;10.012;2023-07-20T04:51:09;4.30;;;3.90;;
20857;SDS011;10589;53.636;10.012;2023-07-20T04:53:35;5.63;;;4.20;;
20857;SDS011;10589;53.636;10.012;2023-07-20T04:56:01;4.23;;;3.57;;
20857;SDS011;10589;53.636;10.012;2023-07-20T04:58:26;4.67;;;4.17;;
20857;SDS011;10589;53.636;10.012;2023-07-20T05:00:53;5.57;;;3.93;;
20857;SDS011;10589;53.636;10.012;2023-07-20T05:03:18;4.00;;;3.70;;
20857;SDS011;10589;53.636;10.012;2023-07-20T05:05:44;3.93;;;3.30;;
20857;SDS011;10589;53.636;10.012;2023-07-20T05:08:11;3.83;;;3.27;;
20857;SDS011;10589;53.636;10.012;2023-07-20T05:10:37;5.10;;;3.43;;
20857;SDS011;10589;53.636;10.012;2023-07-20T05:13:02;3.90;;;3.30;;
20857;SDS011;10589;53.636;10.012;2023-07-20T05:15:28;3.83;;;3.00;;
20857;SDS011;10589;53.636;10.012;2023-07-20T05:17:54;2.93;;;2.57;;
20857;SDS011;10589;53.636;10.012;2023-07-20T05:20:19;4.87;;;2.90;;
20857;SDS011;10589;53.636;10.012;2023-07-20T05:22:45;3.47;;;3.03;;
20857;SDS011;10589;53.636;10.012;2023-07-20T05:25:11;2.87;;;2.40;;
20857;SDS011;10589;53.636;10.012;2023-07-20T05:27:38;4.00;;;2.77;;
20857;SDS011;10589;53.636;10.012;2023-07-20T05:30:05;4.13;;;3.07;;
20857;SDS011;10589;53.636;10.012;2023-07-20T05:32:33;3.97;;;2.70;;
20857;SDS011;10589;53.636;10.012;2023-07-20T05:34:59;3.80;;;2.33;;
20857;SDS011;10589;53.636;10.012;2023-07-20T05:37:24;3.33;;;2.17;;
20857;SDS011;10589;53.636;10.012;2023-07-20T05:39:50;2.13;;;1.93;;
20857;SDS011;10589;53.636;10.012;2023-07-20T05:42:16;4.80;;;2.23;;
20857;SDS011;10589;53.636;10.012;2023-07-20T05:44:41;3.50;;;2.53;;
20857;SDS011;10589;53.636;10.012;2023-07-20T05:47:07;3.20;;;2.20;;
20857;SDS011;10589;53.636;10.012;2023-07-20T05:49:34;3.07;;;2.20;;
20857;SDS011;10589;53.636;10.012;2023-07-20T05:52:00;4.23;;;2.37;;
20857;SDS011;10589;53.636;10.012;2023-07-20T05:54:26;2.43;;;2.10;;
20857;SDS011;10589;53.636;10.012;2023-07-20T05:56:52;2.77;;;2.17;;
20857;SDS011;10589;53.636;10.012;2023-07-20T05:59:18;3.50;;;2.20;;
20857;SDS011;10589;53.636;10.012;2023-07-20T06:01:44;3.50;;;2.10;;
20857;SDS011;10589;53.636;10.012;2023-07-20T06:04:10;2.67;;;2.10;;
20857;SDS011;10589;53.636;10.012;2023-07-20T06:06:36;3.57;;;1.90;;
20857;SDS011;10589;53.636;10.012;2023-07-20T06:09:02;4.13;;;1.60;;
20857;SDS011;10589;53.636;10.012;2023-07-20T06:11:30;2.63;;;1.50;;
20857;SDS011;10589;53.636;10.012;2023-07-20T06:13:56;3.73;;;1.77;;
20857;SDS011;10589;53.636;10.012;2023-07-20T06:16:22;2.73;;;1.60;;
20857;SDS011;10589;53.636;10.012;2023-07-20T06:18:48;3.47;;;2.10;;
20857;SDS011;10589;53.636;10.012;2023-07-20T06:21:13;3.30;;;1.70;;
20857;SDS011;10589;53.636;10.012;2023-07-20T06:23:40;2.77;;;1.50;;
20857;SDS011;10589;53.636;10.012;2023-07-20T06:26:06;2.27;;;1.33;;
20857;SDS011;10589;53.636;10.012;2023-07-20T06:28:32;3.40;;;1.50;;
20857;SDS011;10589;53.636;10.012;2023-07-20T06:30:59;2.23;;;1.13;;
20857;SDS011;10589;53.636;10.012;2023-07-20T06:33:26;1.40;;;1.00;;
20857;SDS011;10589;53.636;10.012;2023-07-20T06:35:51;4.20;;;1.10;;
20857;SDS011;10589;53.636;10.012;2023-07-20T06:38:19;1.83;;;1.20;;
20857;SDS011;10589;53.636;10.012;2023-07-20T06:40:49;4.07;;;1.33;;
20857;SDS011;10589;53.636;10.012;2023-07-20T06:43:15;2.03;;;1.20;;
20857;SDS011;10589;53.636;10.012;2023-07-20T06:45:41;1.60;;;1.00;;
20857;SDS011;10589;53.636;10.012;2023-07-20T06:48:07;3.57;;;1.27;;
20857;SDS011;10589;53.636;10.012;2023-07-20T06:50:33;3.13;;;1.00;;
20857;SDS011;10589;53.636;10.012;2023-07-20T06:52:58;2.70;;;1.10;;
20857;SDS011;10589;53.636;10.012;2023-07-20T06:55:25;0.85;;;0.80;;
20857;SDS011;10589;53.636;10.012;2023-07-20T06:57:51;3.50;;;1.25;;
20857;SDS011;10589;53.636;10.012;2023-07-20T07:00:17;1.75;;;0.90;;
20857;SDS011;10589;53.636;10.012;2023-07-20T07:02:43;3.05;;;0.73;;
20857;SDS011;10589;53.636;10.012;2023-07-20T07:05:08;2.70;;;0.73;;
20857;SDS011;10589;53.636;10.012;2023-07-20T07:07:34;2.75;;;0.93;;
20857;SDS011;10589;53.636;10.012;2023-07-20T07:10:00;2.55;;;0.90;;
20857;SDS011;10589;53.636;10.012;2023-07-20T07:12:28;3.63;;;0.80;;
20857;SDS011;10589;53.636;10.012;2023-07-20T07:14:54;1.77;;;0.70;;
20857;SDS011;10589;53.636;10.012;2023-07-20T07:17:19;4.25;;;0.80;;
20857;SDS011;10589;53.636;10.012;2023-07-20T07:19:45;3.53;;;0.95;;
20857;SDS011;10589;53.636;10.012;2023-07-20T07:22:11;5.65;;;1.27;;
20857;SDS011;10589;53.636;10.012;2023-07-20T07:24:38;3.10;;;0.63;;
20857;SDS011;10589;53.636;10.012;2023-07-20T07:27:06;3.60;;;0.90;;
20857;SDS011;10589;53.636;10.012;2023-07-20T07:29:33;2.47;;;1.00;;
20857;SDS011;10589;53.636;10.012;2023-07-20T07:31:59;2.42;;;0.98;;
20857;SDS011;10589;53.636;10.012;2023-07-20T07:34:25;3.72;;;0.90;;
20857;SDS011;10589;53.636;10.012;2023-07-20T07:36:51;5.30;;;1.10;;
20857;SDS011;10589;53.636;10.012;2023-07-20T07:39:17;3.28;;;1.02;;
20857;SDS011;10589;53.636;10.012;2023-07-20T07:41:42;3.58;;;1.10;;
20857;SDS011;10589;53.636;10.012;2023-07-20T07:44:08;1.85;;;0.85;;
20857;SDS011;10589;53.636;10.012;2023-07-20T07:46:33;2.67;;;0.90;;
20857;SDS011;10589;53.636;10.012;2023-07-20T07:48:59;5.05;;;1.58;;
20857;SDS011;10589;53.636;10.012;2023-07-20T07:51:24;3.40;;;1.27;;
20857;SDS011;10589;53.636;10.012;2023-07-20T07:53:52;4.67;;;1.10;;
20857;SDS011;10589;53.636;10.012;2023-07-20T07:56:18;2.20;;;1.20;;
20857;SDS011;10589;53.636;10.012;2023-07-20T07:58:47;4.50;;;1.50;;
20857;SDS011;10589;53.636;10.012;2023-07-20T08:01:20;3.67;;;1.43;;
20857;SDS011;10589;53.636;10.012;2023-07-20T08:03:45;3.58;;;1.80;;
20857;SDS011;10589;53.636;10.012;2023-07-20T08:06:16;4.45;;;1.50;;
20857;SDS011;10589;53.636;10.012;2023-07-20T08:08:42;3.20;;;1.38;;
20857;SDS011;10589;53.636;10.012;2023-07-20T08:11:08;7.10;;;1.80;;
20857;SDS011;10589;53.636;10.012;2023-07-20T08:13:34;4.30;;;2.27;;
20857;SDS011;10589;53.636;10.012;2023-07-20T08:16:00;6.27;;;1.90;;
20857;SDS011;10589;53.636;10.012;2023-07-20T08:18:27;4.95;;;1.70;;
20857;SDS011;10589;53.636;10.012;2023-07-20T08:20:53;6.47;;;1.90;;
20857;SDS011;10589;53.636;10.012;2023-07-20T08:23:19;3.58;;;1.70;;
20857;SDS011;10589;53.636;10.012;2023-07-20T08:25:45;9.35;;;2.10;;
20857;SDS011;10589;53.636;10.012;2023-07-20T08:28:14;3.05;;;1.35;;
20857;SDS011;10589;53.636;10.012;2023-07-20T08:30:49;5.78;;;1.52;;
20857;SDS011;10589;53.636;10.012;2023-07-20T08:33:16;7.50;;;1.25;;
20857;SDS011;10589;53.636;10.012;2023-07-20T08:35:46;8.68;;;2.15;;
20857;SDS011;10589;53.636;10.012;2023-07-20T08:38:11;11.05;;;2.35;;
20857;SDS011;10589;53.636;10.012;2023-07-20T08:40:41;9.70;;;2.10;;
20857;SDS011;10589;53.636;10.012;2023-07-20T08:43:10;9.90;;;1.80;;
20857;SDS011;10589;53.636;10.012;2023-07-20T08:45:35;8.82;;;1.92;;
20857;SDS011;10589;53.636;10.012;2023-07-20T08:48:03;8.27;;;1.48;;
20857;SDS011;10589;53.636;10.012;2023-07-20T08:50:31;6.05;;;1.13;;
20857;SDS011;10589;53.636;10.012;2023-07-20T08:52:57;6.40;;;1.33;;
20857;SDS011;10589;53.636;10.012;2023-07-20T08:55:24;7.50;;;1.00;;
20857;SDS011;10589;53.636;10.012;2023-07-20T08:57:53;6.32;;;1.80;;
20857;SDS011;10589;53.636;10.012;2023-07-20T09:00:20;4.15;;;1.63;;
20857;SDS011;10589;53.636;10.012;2023-07-20T09:02:47;3.65;;;1.02;;
20857;SDS011;10589;53.636;10.012;2023-07-20T09:05:18;3.15;;;1.42;;
20857;SDS011;10589;53.636;10.012;2023-07-20T09:07:48;8.40;;;2.13;;
20857;SDS011;10589;53.636;10.012;2023-07-20T09:10:14;9.82;;;2.72;;
20857;SDS011;10589;53.636;10.012;2023-07-20T09:12:41;6.53;;;1.70;;
20857;SDS011;10589;53.636;10.012;2023-07-20T09:15:08;4.32;;;1.70;;
20857;SDS011;10589;53.636;10.012;2023-07-20T09:17:34;7.72;;;2.45;;
20857;SDS011;10589;53.636;10.012;2023-07-20T09:20:04;3.45;;;0.70;;
20857;SDS011;10589;53.636;10.012;2023-07-20T09:22:33;5.55;;;1.00;;
20857;SDS011;10589;53.636;10.012;2023-07-20T09:24:59;3.28;;;0.70;;
20857;SDS011;10589;53.636;10.012;2023-07-20T09:27:34;4.85;;;0.90;;
20857;SDS011;10589;53.636;10.012;2023-07-20T09:30:04;2.60;;;0.80;;
20857;SDS011;10589;53.636;10.012;2023-07-20T09:32:34;4.85;;;1.10;;
20857;SDS011;10589;53.636;10.012;2023-07-20T09:35:05;2.20;;;0.90;;
20857;SDS011;10589;53.636;10.012;2023-07-20T09:37:32;6.80;;;1.50;;
20857;SDS011;10589;53.636;10.012;2023-07-20T09:39:58;6.68;;;1.38;;
20857;SDS011;10589;53.636;10.012;2023-07-20T09:42:25;3.05;;;1.02;;
20857;SDS011;10589;53.636;10.012;2023-07-20T09:44:51;4.82;;;1.10;;
20857;SDS011;10589;53.636;10.012;2023-07-20T09:47:21;5.03;;;0.90;;
20857;SDS011;10589;53.636;10.012;2023-07-20T09:49:48;4.68;;;0.65;;
20857;SDS011;10589;53.636;10.012;2023-07-20T09:52:14;2.17;;;0.50;;
20857;SDS011;10589;53.636;10.012;2023-07-20T09:54:41;3.28;;;0.80;;
20857;SDS011;10589;53.636;10.012;2023-07-20T09:57:11;2.97;;;0.60;;
20857;SDS011;10589;53.636;10.012;2023-07-20T09:59:38;3.47;;;0.65;;
20857;SDS011;10589;53.636;10.012;2023-07-20T10:02:04;4.55;;;0.80;;
20857;SDS011;10589;53.636;10.012;2023-07-20T10:04:39;4.80;;;0.60;;
20857;SDS011;10589;53.636;10.012;2023-07-20T10:07:08;2.08;;;0.60;;
20857;SDS011;10589;53.636;10.012;2023-07-20T10:09:36;3.22;;;0.50;;
20857;SDS011;10589;53.636;10.012;2023-07-20T10:12:05;1.75;;;0.43;;
20857;SDS011;10589;53.636;10.012;2023-07-20T10:14:32;3.35;;;0.70;;
20857;SDS011;10589;53.636;10.012;2023-07-20T10:17:03;1.58;;;0.47;;
20857;SDS011;10589;53.636;10.012;2023-07-20T10:22:25;4.63;;;0.70;;
20857;SDS011;10589;53.636;10.012;2023-07-20T10:24:52;3.60;;;0.47;;
20857;SDS011;10589;53.636;10.012;2023-07-20T10:27:22;2.22;;;0.55;;
20857;SDS011;10589;53.636;10.012;2023-07-20T10:29:48;4.80;;;0.60;;
20857;SDS011;10589;53.636;10.012;2023-07-20T10:32:14;5.65;;;0.93;;
20857;SDS011;10589;53.636;10.012;2023-07-20T10:34:40;4.32;;;0.95;;
20857;SDS011;10589;53.636;10.012;2023-07-20T10:37:06;2.28;;;0.60;;
20857;SDS011;10589;53.636;10.012;2023-07-20T10:39:32;1.20;;;0.50;;
20857;SDS011;10589;53.636;10.012;2023-07-20T10:42:07;4.82;;;1.23;;
20857;SDS011;10589;53.636;10.012;2023-07-20T10:44:36;5.35;;;0.98;;
20857;SDS011;10589;53.636;10.012;2023-07-20T10:47:03;4.78;;;1.10;;
20857;SDS011;10589;53.636;10.012;2023-07-20T10:49:34;2.38;;;0.75;;
20857;SDS011;10589;53.636;10.012;2023-07-20T10:52:20;7.78;;;1.00;;
20857;SDS011;10589;53.636;10.012;2023-07-20T10:54:49;4.55;;;0.70;;
20857;SDS011;10589;53.636;10.012;2023-07-20T10:57:21;3.83;;;0.57;;
20857;SDS011;10589;53.636;10.012;2023-07-20T10:59:56;2.85;;;0.50;;
20857;SDS011;10589;53.636;10.012;2023-07-20T11:02:41;6.47;;;0.88;;
20857;SDS011;10589;53.636;10.012;2023-07-20T11:07:59;2.63;;;0.65;;
20857;SDS011;10589;53.636;10.012;2023-07-20T11:10:24;3.45;;;0.45;;
20857;SDS011;10589;53.636;10.012;2023-07-20T11:15:52;4.75;;;0.82;;
20857;SDS011;10589;53.636;10.012;2023-07-20T11:18:28;2.78;;;0.98;;
20857;SDS011;10589;53.636;10.012;2023-07-20T11:20:55;2.70;;;0.70;;
20857;SDS011;10589;53.636;10.012;2023-07-20T11:23:21;3.45;;;0.80;;
20857;SDS011;10589;53.636;10.012;2023-07-20T11:25:46;4.35;;;0.75;;
20857;SDS011;10589;53.636;10.012;2023-07-20T11:28:12;2.13;;;0.63;;
20857;SDS011;10589;53.636;10.012;2023-07-20T11:30:38;3.15;;;0.60;;
20857;SDS011;10589;53.636;10.012;2023-07-20T11:33:04;2.08;;;0.70;;
20857;SDS011;10589;53.636;10.012;2023-07-20T11:35:30;3.50;;;0.43;;
20857;SDS011;10589;53.636;10.012;2023-07-20T11:38:00;3.25;;;0.60;;
20857;SDS011;10589;53.636;10.012;2023-07-20T11:40:25;1.38;;;0.40;;
20857;SDS011;10589;53.636;10.012;2023-07-20T11:42:51;2.75;;;0.52;;
20857;SDS011;10589;53.636;10.012;2023-07-20T11:45:19;2.25;;;0.52;;
20857;SDS011;10589;53.636;10.012;2023-07-20T11:47:45;1.50;;;0.30;;
20857;SDS011;10589;53.636;10.012;2023-07-20T11:50:11;2.03;;;0.40;;
20857;SDS011;10589;53.636;10.012;2023-07-20T11:52:39;3.10;;;0.40;;
20857;SDS011;10589;53.636;10.012;2023-07-20T11:55:05;5.35;;;0.55;;
20857;SDS011;10589;53.636;10.012;2023-07-20T11:57:32;3.78;;;0.50;;
20857;SDS011;10589;53.636;10.012;2023-07-20T12:00:02;3.42;;;0.47;;
20857;SDS011;10589;53.636;10.012;2023-07-20T12:02:33;3.00;;;0.50;;
20857;SDS011;10589;53.636;10.012;2023-07-20T12:04:59;4.13;;;0.90;;
20857;SDS011;10589;53.636;10.012;2023-07-20T12:07:27;2.78;;;0.50;;
20857;SDS011;10589;53.636;10.012;2023-07-20T12:12:50;5.03;;;0.82;;
20857;SDS011;10589;53.636;10.012;2023-07-20T12:15:16;5.50;;;0.77;;
20857;SDS011;10589;53.636;10.012;2023-07-20T12:17:45;4.20;;;0.60;;
20857;SDS011;10589;53.636;10.012;2023-07-20T12:20:13;2.72;;;0.80;;
20857;SDS011;10589;53.636;10.012;2023-07-20T12:22:55;4.47;;;1.13;;
20857;SDS011;10589;53.636;10.012;2023-07-20T12:25:31;5.82;;;0.80;;
20857;SDS011;10589;53.636;10.012;2023-07-20T12:28:00;3.38;;;0.60;;
20857;SDS011;10589;53.636;10.012;2023-07-20T12:30:27;5.72;;;1.48;;
20857;SDS011;10589;53.636;10.012;2023-07-20T12:32:53;4.00;;;0.77;;
20857;SDS011;10589;53.636;10.012;2023-07-20T12:35:19;3.38;;;0.68;;
20857;SDS011;10589;53.636;10.012;2023-07-20T12:37:44;1.95;;;0.57;;
20857;SDS011;10589;53.636;10.012;2023-07-20T12:40:13;10.55;;;1.23;;
20857;SDS011;10589;53.636;10.012;2023-07-20T12:42:39;3.70;;;0.98;;
20857;SDS011;10589;53.636;10.012;2023-07-20T12:45:05;6.55;;;0.95;;
20857;SDS011;10589;53.636;10.012;2023-07-20T12:47:31;2.78;;;0.90;;
20857;SDS011;10589;53.636;10.012;2023-07-20T12:49:57;4.63;;;0.88;;
20857;SDS011;10589;53.636;10.012;2023-07-20T12:52:22;4.78;;;0.75;;
20857;SDS011;10589;53.636;10.012;2023-07-20T12:54:48;4.18;;;0.80;;
20857;SDS011;10589;53.636;10.012;2023-07-20T12:57:14;4.43;;;0.80;;
20857;SDS011;10589;53.636;10.012;2023-07-20T12:59:39;3.25;;;0.75;;
20857;SDS011;10589;53.636;10.012;2023-07-20T13:02:05;2.78;;;0.77;;
20857;SDS011;10589;53.636;10.012;2023-07-20T13:04:31;3.78;;;0.70;;
20857;SDS011;10589;53.636;10.012;2023-07-20T13:06:56;1.90;;;0.47;;
20857;SDS011;10589;53.636;10.012;2023-07-20T13:09:23;4.43;;;0.70;;
20857;SDS011;10589;53.636;10.012;2023-07-20T13:11:50;2.83;;;0.60;;
20857;SDS011;10589;53.636;10.012;2023-07-20T13:14:16;1.83;;;0.68;;
20857;SDS011;10589;53.636;10.012;2023-07-20T13:16:42;1.33;;;0.30;;
20857;SDS011;10589;53.636;10.012;2023-07-20T13:19:07;3.58;;;0.50;;
20857;SDS011;10589;53.636;10.012;2023-07-20T13:21:33;2.10;;;0.60;;
20857;SDS011;10589;53.636;10.012;2023-07-20T13:23:59;3.30;;;0.70;;
20857;SDS011;10589;53.636;10.012;2023-07-20T13:26:24;2.78;;;0.55;;
20857;SDS011;10589;53.636;10.012;2023-07-20T13:28:50;3.67;;;0.60;;
20857;SDS011;10589;53.636;10.012;2023-07-20T13:31:16;3.83;;;0.60;;
20857;SDS011;10589;53.636;10.012;2023-07-20T13:33:42;5.47;;;0.60;;
20857;SDS011;10589;53.636;10.012;2023-07-20T13:36:08;2.72;;;0.40;;
20857;SDS011;10589;53.636;10.012;2023-07-20T13:38:33;2.53;;;0.63;;
20857;SDS011;10589;53.636;10.012;2023-07-20T13:40:59;1.67;;;0.40;;
20857;SDS011;10589;53.636;10.012;2023-07-20T13:43:24;4.15;;;0.63;;
20857;SDS011;10589;53.636;10.012;2023-07-20T13:45:50;1.88;;;0.40;;
20857;SDS011;10589;53.636;10.012;2023-07-20T13:48:16;3.03;;;0.60;;
20857;SDS011;10589;53.636;10.012;2023-07-20T13:50:44;3.60;;;0.70;;
20857;SDS011;10589;53.636;10.012;2023-07-20T13:53:10;2.70;;;0.70;;
20857;SDS011;10589;53.636;10.012;2023-07-20T13:55:36;3.72;;;0.35;;
20857;SDS011;10589;53.636;10.012;2023-07-20T13:58:03;1.17;;;0.40;;
20857;SDS011;10589;53.636;10.012;2023-07-20T14:00:29;2.15;;;0.30;;
20857;SDS011;10589;53.636;10.012;2023-07-20T14:02:58;2.78;;;0.30;;
20857;SDS011;10589;53.636;10.012;2023-07-20T14:05:24;1.02;;;0.28;;
20857;SDS011;10589;53.636;10.012;2023-07-20T14:07:50;1.70;;;0.30;;
20857;SDS011;10589;53.636;10.012;2023-07-20T14:10:16;1.65;;;0.30;;
20857;SDS011;10589;53.636;10.012;2023-07-20T14:12:42;4.22;;;0.40;;
20857;SDS011;10589;53.636;10.012;2023-07-20T14:15:09;3.08;;;0.50;;
20857;SDS011;10589;53.636;10.012;2023-07-20T14:17:35;2.42;;;0.60;;
20857;SDS011;10589;53.636;10.012;2023-07-20T14:20:00;2.13;;;0.60;;
20857;SDS011;10589;53.636;10.012;2023-07-20T14:22:27;1.70;;;0.50;;
20857;SDS011;10589;53.636;10.012;2023-07-20T14:24:52;2.45;;;0.40;;
20857;SDS011;10589;53.636;10.012;2023-07-20T14:27:18;2.53;;;0.30;;
20857;SDS011;10589;53.636;10.012;2023-07-20T14:29:44;0.93;;;0.50;;
20857;SDS011;10589;53.636;10.012;2023-07-20T14:32:09;3.88;;;0.50;;
20857;SDS011;10589;53.636;10.012;2023-07-20T14:34:35;1.50;;;0.45;;
20857;SDS011;10589;53.636;10.012;2023-07-20T14:37:01;4.03;;;0.80;;
20857;SDS011;10589;53.636;10.012;2023-07-20T14:39:27;1.85;;;0.43;;
20857;SDS011;10589;53.636;10.012;2023-07-20T14:41:53;2.38;;;0.50;;
20857;SDS011;10589;53.636;10.012;2023-07-20T14:44:18;2.85;;;0.52;;
20857;SDS011;10589;53.636;10.012;2023-07-20T14:46:45;4.50;;;0.70;;
20857;SDS011;10589;53.636;10.012;2023-07-20T14:49:11;1.23;;;0.40;;
20857;SDS011;10589;53.636;10.012;2023-07-20T14:51:36;1.60;;;0.40;;
20857;SDS011;10589;53.636;10.012;2023-07-20T14:54:08;3.47;;;0.55;;
20857;SDS011;10589;53.636;10.012;2023-07-20T14:56:34;1.90;;;0.47;;
20857;SDS011;10589;53.636;10.012;2023-07-20T14:59:00;1.45;;;0.47;;
20857;SDS011;10589;53.636;10.012;2023-07-20T15:01:26;1.60;;;0.52;;
20857;SDS011;10589;53.636;10.012;2023-07-20T15:03:52;3.08;;;0.60;;
20857;SDS011;10589;53.636;10.012;2023-07-20T15:06:18;1.80;;;0.40;;
20857;SDS011;10589;53.636;10.012;2023-07-20T15:08:44;3.88;;;0.60;;
20857;SDS011;10589;53.636;10.012;2023-07-20T15:11:10;3.28;;;0.80;;
20857;SDS011;10589;53.636;10.012;2023-07-20T15:13:35;3.08;;;0.70;;
20857;SDS011;10589;53.636;10.012;2023-07-20T15:16:01;5.07;;;0.90;;
20857;SDS011;10589;53.636;10.012;2023-07-20T15:18:26;2.45;;;0.85;;
20857;SDS011;10589;53.636;10.012;2023-07-20T15:20:52;3.30;;;0.70;;
20857;SDS011;10589;53.636;10.012;2023-07-20T15:23:20;3.38;;;0.80;;
20857;SDS011;10589;53.636;10.012;2023-07-20T15:25:46;4.22;;;0.77;;
20857;SDS011;10589;53.636;10.012;2023-07-20T15:28:11;3.05;;;0.80;;
20857;SDS011;10589;53.636;10.012;2023-07-20T15:30:37;4.28;;;0.70;;
20857;SDS011;10589;53.636;10.012;2023-07-20T15:33:03;1.50;;;0.47;;
20857;SDS011;10589;53.636;10.012;2023-07-20T15:35:28;4.07;;;0.88;;
20857;SDS011;10589;53.636;10.012;2023-07-20T15:37:54;1.98;;;0.60;;
20857;SDS011;10589;53.636;10.012;2023-07-20T15:40:20;4.55;;;0.88;;
20857;SDS011;10589;53.636;10.012;2023-07-20T15:42:45;4.53;;;0.90;;
20857;SDS011;10589;53.636;10.012;2023-07-20T15:45:12;3.08;;;0.73;;
20857;SDS011;10589;53.636;10.012;2023-07-20T15:47:38;1.83;;;0.65;;
20857;SDS011;10589;53.636;10.012;2023-07-20T15:50:03;2.28;;;0.65;;
20857;SDS011;10589;53.636;10.012;2023-07-20T15:52:29;1.38;;;0.50;;
20857;SDS011;10589;53.636;10.012;2023-07-20T15:54:55;2.03;;;0.60;;
20857;SDS011;10589;53.636;10.012;2023-07-20T15:57:21;2.90;;;0.70;;
20857;SDS011;10589;53.636;10.012;2023-07-20T15:59:46;3.25;;;0.77;;
20857;SDS011;10589;53.636;10.012;2023-07-20T16:02:12;5.93;;;1.30;;
20857;SDS011;10589;53.636;10.012;2023-07-20T16:04:38;3.72;;;0.73;;
20857;SDS011;10589;53.636;10.012;2023-07-20T16:07:03;2.72;;;0.88;;
20857;SDS011;10589;53.636;10.012;2023-07-20T16:09:31;2.97;;;0.60;;
20857;SDS011;10589;53.636;10.012;2023-07-20T16:11:57;4.05;;;0.68;;
20857;SDS011;10589;53.636;10.012;2023-07-20T16:14:23;2.90;;;0.70;;
20857;SDS011;10589;53.636;10.012;2023-07-20T16:16:49;1.73;;;0.50;;
20857;SDS011;10589;53.636;10.012;2023-07-20T16:19:14;7.65;;;0.95;;
20857;SDS011;10589;53.636;10.012;2023-07-20T16:21:40;3.20;;;0.70;;
20857;SDS011;10589;53.636;10.012;2023-07-20T16:24:06;2.00;;;0.60;;
20857;SDS011;10589;53.636;10.012;2023-07-20T16:26:32;2.63;;;0.60;;
20857;SDS011;10589;53.636;10.012;2023-07-20T16:28:57;4.10;;;0.90;;
20857;SDS011;10589;53.636;10.012;2023-07-20T16:31:23;2.08;;;0.73;;
20857;SDS011;10589;53.636;10.012;2023-07-20T16:33:48;2.60;;;0.70;;
20857;SDS011;10589;53.636;10.012;2023-07-20T16:36:15;3.08;;;0.65;;
20857;SDS011;10589;53.636;10.012;2023-07-20T16:38:43;2.17;;;0.73;;
20857;SDS011;10589;53.636;10.012;2023-07-20T16:41:09;5.28;;;0.70;;
20857;SDS011;10589;53.636;10.012;2023-07-20T16:43:36;1.77;;;0.60;;
20857;SDS011;10589;53.636;10.012;2023-07-20T16:46:03;5.18;;;0.80;;
20857;SDS011;10589;53.636;10.012;2023-07-20T16:48:30;5.05;;;0.80;;
20857;SDS011;10589;53.636;10.012;2023-07-20T16:50:56;5.82;;;0.75;;
20857;SDS011;10589;53.636;10.012;2023-07-20T16:53:22;3.47;;;0.90;;
20857;SDS011;10589;53.636;10.012;2023-07-20T16:55:49;2.58;;;0.70;;
20857;SDS011;10589;53.636;10.012;2023-07-20T16:58:20;2.85;;;0.70;;
20857;SDS011;10589;53.636;10.012;2023-07-20T17:00:47;3.65;;;0.80;;
20857;SDS011;10589;53.636;10.012;2023-07-20T17:03:13;4.03;;;0.60;;
20857;SDS011;10589;53.636;10.012;2023-07-20T17:05:39;2.95;;;0.80;;
20857;SDS011;10589;53.636;10.012;2023-07-20T17:08:05;2.35;;;0.70;;
20857;SDS011;10589;53.636;10.012;2023-07-20T17:10:31;3.85;;;0.90;;
20857;SDS011;10589;53.636;10.012;2023-07-20T17:12:57;2.40;;;0.80;;
20857;SDS011;10589;53.636;10.012;2023-07-20T17:15:23;5.35;;;0.80;;
20857;SDS011;10589;53.636;10.012;2023-07-20T17:17:48;1.77;;;0.60;;
20857;SDS011;10589;53.636;10.012;2023-07-20T17:20:18;2.35;;;0.75;;
20857;SDS011;10589;53.636;10.012;2023-07-20T17:22:44;2.55;;;0.77;;
20857;SDS011;10589;53.636;10.012;2023-07-20T17:25:10;2.65;;;0.70;;
20857;SDS011;10589;53.636;10.012;2023-07-20T17:27:36;2.95;;;0.75;;
20857;SDS011;10589;53.636;10.012;2023-07-20T17:30:02;3.30;;;1.08;;
20857;SDS011;10589;53.636;10.012;2023-07-20T17:32:28;3.40;;;0.73;;
20857;SDS011;10589;53.636;10.012;2023-07-20T17:34:54;3.60;;;0.80;;
20857;SDS011;10589;53.636;10.012;2023-07-20T17:37:21;1.00;;;0.55;;
20857;SDS011;10589;53.636;10.012;2023-07-20T17:39:49;2.38;;;0.75;;
20857;SDS011;10589;53.636;10.012;2023-07-20T17:42:15;0.77;;;0.50;;
20857;SDS011;10589;53.636;10.012;2023-07-20T17:44:41;1.40;;;0.77;;
20857;SDS011;10589;53.636;10.012;2023-07-20T17:47:07;3.25;;;0.80;;
20857;SDS011;10589;53.636;10.012;2023-07-20T17:49:33;1.83;;;0.68;;
20857;SDS011;10589;53.636;10.012;2023-07-20T17:51:59;2.30;;;0.80;;
20857;SDS011;10589;53.636;10.012;2023-07-20T17:54:25;3.88;;;1.13;;
20857;SDS011;10589;53.636;10.012;2023-07-20T17:56:50;2.67;;;0.70;;
20857;SDS011;10589;53.636;10.012;2023-07-20T17:59:16;2.20;;;0.75;;
20857;SDS011;10589;53.636;10.012;2023-07-20T18:01:42;3.22;;;0.85;;
20857;SDS011;10589;53.636;10.012;2023-07-20T18:04:07;4.28;;;1.20;;
20857;SDS011;10589;53.636;10.012;2023-07-20T18:06:33;4.78;;;0.90;;
20857;SDS011;10589;53.636;10.012;2023-07-20T18:09:00;3.63;;;0.80;;
20857;SDS011;10589;53.636;10.012;2023-07-20T18:11:25;3.50;;;0.80;;
20857;SDS011;10589;53.636;10.012;2023-07-20T18:13:51;4.50;;;1.00;;
20857;SDS011;10589;53.636;10.012;2023-07-20T18:16:17;2.05;;;0.90;;
20857;SDS011;10589;53.636;10.012;2023-07-20T18:18:42;3.60;;;0.73;;
20857;SDS011;10589;53.636;10.012;2023-07-20T18:21:08;4.78;;;1.23;;
20857;SDS011;10589;53.636;10.012;2023-07-20T18:23:33;4.07;;;0.70;;
20857;SDS011;10589;53.636;10.012;2023-07-20T18:25:59;3.15;;;1.05;;
20857;SDS011;10589;53.636;10.012;2023-07-20T18:28:25;2.15;;;0.70;;